createdAt,value
2022-12-27T00:01:56.490Z,1.00
2022-12-27T00:04:23.793Z,0.93
2022-12-27T00:06:50.718Z,0.90
2022-12-27T00:09:17.639Z,0.88
2022-12-27T00:11:45.221Z,1.00
2022-12-27T00:14:12.304Z,0.90
2022-12-27T00:16:39.508Z,0.98
2022-12-27T00:19:06.543Z,1.00
2022-12-27T00:21:33.303Z,1.02
2022-12-27T00:24:00.738Z,0.77
2022-12-27T00:26:30.044Z,1.10
2022-12-27T00:28:57.460Z,0.98
2022-12-27T00:31:26.911Z,0.95
2022-12-27T00:33:55.832Z,1.00
2022-12-27T00:36:25.570Z,1.20
2022-12-27T00:38:53.562Z,0.90
2022-12-27T00:41:20.555Z,0.70
2022-12-27T00:43:47.891Z,1.15
2022-12-27T00:46:15.085Z,1.13
2022-12-27T00:48:41.888Z,1.00
2022-12-27T00:51:19.413Z,0.70
2022-12-27T00:53:48.656Z,0.80
2022-12-27T00:56:21.957Z,0.85
2022-12-27T00:58:53.239Z,0.90
2022-12-27T01:01:21.750Z,0.70
2022-12-27T01:03:48.757Z,0.77
2022-12-27T01:06:18.794Z,0.70
2022-12-27T01:08:46.387Z,0.77
2022-12-27T01:11:15.044Z,0.80
2022-12-27T01:13:42.543Z,0.90
2022-12-27T01:16:11.833Z,0.80
2022-12-27T01:21:10.108Z,0.95
2022-12-27T01:23:37.467Z,0.90
2022-12-27T01:26:06.747Z,0.75
2022-12-27T01:28:34.019Z,0.70
2022-12-27T01:31:08.959Z,0.85
2022-12-27T01:33:35.751Z,0.70
2022-12-27T01:36:16.744Z,0.73
2022-12-27T01:38:43.566Z,0.90
2022-12-27T01:41:57.096Z,0.90
2022-12-27T01:44:43.592Z,0.77
2022-12-27T01:47:12.953Z,0.80
2022-12-27T01:52:11.617Z,0.80
2022-12-27T01:54:39.086Z,1.00
2022-12-27T01:57:06.458Z,0.70
2022-12-27T01:59:34.246Z,0.77
2022-12-27T02:02:01.463Z,1.00
2022-12-27T02:04:30.677Z,0.98
2022-12-27T02:06:58.089Z,0.82
2022-12-27T02:09:44.778Z,0.70
2022-12-27T02:12:11.925Z,0.80
2022-12-27T02:14:47.004Z,1.00
2022-12-27T02:17:18.894Z,0.80
2022-12-27T02:20:12.719Z,0.77
2022-12-27T02:23:39.545Z,0.70
2022-12-27T02:26:32.581Z,0.80
2022-12-27T02:29:19.928Z,0.80
2022-12-27T02:31:57.092Z,0.60
2022-12-27T02:34:31.271Z,0.90
2022-12-27T02:37:04.228Z,0.70
2022-12-27T02:39:36.107Z,0.63
2022-12-27T02:42:22.031Z,1.20
2022-12-27T02:45:07.749Z,0.88
2022-12-27T02:47:54.270Z,0.77
2022-12-27T02:50:40.079Z,0.68
2022-12-27T02:53:19.009Z,0.82
2022-12-27T02:56:25.213Z,0.82
2022-12-27T02:59:09.874Z,1.05
2022-12-27T03:02:13.977Z,0.73
2022-12-27T03:05:30.532Z,0.80
2022-12-27T03:08:13.831Z,0.70
2022-12-27T03:11:01.986Z,0.90
2022-12-27T03:14:15.872Z,0.70
2022-12-27T03:16:58.661Z,0.80
2022-12-27T03:19:58.073Z,0.80
2022-12-27T03:22:47.220Z,0.75
2022-12-27T03:25:28.424Z,0.70
2022-12-27T03:28:22.848Z,0.60
2022-12-27T03:31:15.600Z,0.70
2022-12-27T03:33:43.165Z,0.60
2022-12-27T03:36:41.148Z,0.82
2022-12-27T03:39:16.950Z,0.70
2022-12-27T03:42:09.664Z,0.73
2022-12-27T03:44:36.324Z,0.90
2022-12-27T03:47:32.073Z,0.63
2022-12-27T03:50:07.871Z,0.90
2022-12-27T03:52:44.139Z,0.60
2022-12-27T03:55:11.929Z,0.60
2022-12-27T03:57:39.760Z,0.70
2022-12-27T04:00:07.160Z,0.70
2022-12-27T04:02:40.761Z,0.80
2022-12-27T04:05:07.958Z,0.93
2022-12-27T04:07:34.941Z,0.82
2022-12-27T04:10:20.340Z,0.80
2022-12-27T04:13:05.686Z,0.65
2022-12-27T04:15:51.241Z,0.70
2022-12-27T04:18:36.579Z,0.90
2022-12-27T04:21:21.695Z,0.80
2022-12-27T04:24:07.279Z,0.70
2022-12-27T04:26:52.588Z,0.80
2022-12-27T04:29:37.535Z,1.02
2022-12-27T04:32:23.146Z,0.95
2022-12-27T04:34:49.794Z,0.93
2022-12-27T04:37:18.967Z,1.00
2022-12-27T04:40:10.645Z,0.98
2022-12-27T04:42:55.694Z,0.98
2022-12-27T04:45:41.614Z,1.20
2022-12-27T04:48:34.355Z,1.00
2022-12-27T04:51:20.462Z,0.98
2022-12-27T04:54:05.947Z,0.82
2022-12-27T04:56:32.772Z,1.42
2022-12-27T04:59:18.275Z,1.20
2022-12-27T05:02:03.495Z,1.00
2022-12-27T05:04:32.450Z,1.17
2022-12-27T05:07:19.635Z,1.13
2022-12-27T05:10:05.261Z,1.00
2022-12-27T05:12:50.176Z,0.80
2022-12-27T05:15:16.876Z,0.95
2022-12-27T05:17:43.660Z,0.82
2022-12-27T05:20:11.188Z,1.00
2022-12-27T05:22:56.383Z,0.80
2022-12-27T05:25:35.395Z,0.90
2022-12-27T05:28:03.229Z,0.80
2022-12-27T05:30:32.823Z,0.93
2022-12-27T05:32:59.484Z,0.82
2022-12-27T05:35:26.086Z,0.90
2022-12-27T05:37:55.843Z,0.90
2022-12-27T05:40:23.388Z,0.95
2022-12-27T05:42:50.569Z,0.90
2022-12-27T05:45:17.655Z,1.00
2022-12-27T05:47:44.550Z,1.50
2022-12-27T05:50:11.694Z,0.60
2022-12-27T05:52:41.177Z,1.00
2022-12-27T05:55:08.744Z,0.80
2022-12-27T05:57:35.397Z,1.02
2022-12-27T06:00:02.995Z,1.00
2022-12-27T06:02:39.590Z,0.85
2022-12-27T06:05:06.891Z,0.80
2022-12-27T06:07:35.905Z,1.17
2022-12-27T06:10:04.059Z,0.70
2022-12-27T06:12:31.321Z,0.70
2022-12-27T06:14:58.156Z,0.98
2022-12-27T06:17:25.071Z,0.82
2022-12-27T06:19:56.781Z,0.90
2022-12-27T06:22:24.642Z,1.20
2022-12-27T06:24:51.400Z,1.10
2022-12-27T06:27:17.942Z,1.00
2022-12-27T06:29:44.528Z,0.95
2022-12-27T06:32:11.281Z,1.20
2022-12-27T06:34:38.184Z,1.10
2022-12-27T06:37:04.905Z,1.60
2022-12-27T06:39:31.626Z,0.90
2022-12-27T06:41:58.349Z,1.02
2022-12-27T06:44:26.198Z,1.02
2022-12-27T06:46:52.969Z,0.80
2022-12-27T06:49:19.694Z,1.08
2022-12-27T06:51:52.560Z,0.95
2022-12-27T06:54:22.686Z,0.90
2022-12-27T06:56:49.523Z,0.85
2022-12-27T06:59:16.126Z,0.85
2022-12-27T07:01:42.992Z,1.10
2022-12-27T07:04:10.538Z,0.70
2022-12-27T07:06:56.167Z,0.90
2022-12-27T07:09:22.873Z,0.70
2022-12-27T07:11:49.681Z,0.70
2022-12-27T07:14:16.479Z,0.68
2022-12-27T07:16:43.330Z,0.77
2022-12-27T07:19:10.526Z,1.02
2022-12-27T07:21:37.342Z,0.90
2022-12-27T07:24:04.463Z,0.80
2022-12-27T07:26:31.259Z,0.90
2022-12-27T07:29:00.946Z,0.70
2022-12-27T07:31:33.464Z,0.80
2022-12-27T07:34:02.573Z,1.00
2022-12-27T07:36:34.102Z,0.90
2022-12-27T07:39:00.789Z,0.90
2022-12-27T07:41:27.791Z,0.93
2022-12-27T07:43:54.896Z,0.77
2022-12-27T07:46:24.307Z,0.80
2022-12-27T07:48:54.183Z,0.70
2022-12-27T07:51:21.207Z,1.00
2022-12-27T07:53:49.474Z,0.70
2022-12-27T07:56:25.452Z,0.80
2022-12-27T07:58:54.286Z,1.00
2022-12-27T08:01:22.579Z,0.90
2022-12-27T08:03:49.766Z,0.85
2022-12-27T08:06:29.978Z,0.90
2022-12-27T08:08:59.234Z,0.70
2022-12-27T08:11:30.157Z,0.98
2022-12-27T08:13:57.142Z,0.80
2022-12-27T08:16:26.003Z,0.70
2022-12-27T08:18:53.836Z,0.80
2022-12-27T08:21:20.771Z,1.05
2022-12-27T08:23:47.606Z,0.90
2022-12-27T08:26:14.970Z,0.88
2022-12-27T08:28:41.832Z,0.70
2022-12-27T08:31:13.814Z,1.00
2022-12-27T08:33:41.941Z,0.82
2022-12-27T08:36:36.825Z,0.90
2022-12-27T08:38:57.790Z,1.00
2022-12-27T08:41:24.619Z,0.93
2022-12-27T08:43:51.223Z,0.90
2022-12-27T08:46:19.753Z,0.80
2022-12-27T08:48:50.673Z,0.90
2022-12-27T08:51:26.550Z,1.20
2022-12-27T08:53:58.375Z,1.10
2022-12-27T08:56:25.191Z,1.10
2022-12-27T08:58:52.040Z,0.80
2022-12-27T09:01:19.084Z,1.10
2022-12-27T09:03:46.239Z,0.80
2022-12-27T09:06:18.674Z,1.00
2022-12-27T09:08:47.473Z,1.20
2022-12-27T09:11:16.853Z,1.30
2022-12-27T09:16:13.538Z,1.38
2022-12-27T09:18:41.893Z,1.40
2022-12-27T09:21:13.887Z,1.70
2022-12-27T09:23:41.726Z,1.60
2022-12-27T09:26:15.058Z,1.50
2022-12-27T09:28:42.621Z,1.95
2022-12-27T09:31:11.241Z,1.60
2022-12-27T09:33:38.439Z,1.77
2022-12-27T09:36:17.410Z,2.10
2022-12-27T09:38:45.390Z,2.10
2022-12-27T09:42:33.817Z,2.20
2022-12-27T09:44:22.991Z,1.95
2022-12-27T09:46:59.309Z,1.83
2022-12-27T09:50:12.664Z,1.83
2022-12-27T09:52:53.698Z,1.55
2022-12-27T09:55:43.209Z,1.80
2022-12-27T09:58:30.980Z,1.85
2022-12-27T10:00:57.851Z,1.73
2022-12-27T10:03:27.186Z,1.50
2022-12-27T10:08:35.085Z,1.70
2022-12-27T10:11:04.321Z,1.58
2022-12-27T10:16:18.763Z,1.40
2022-12-27T10:19:12.864Z,1.48
2022-12-27T10:21:52.843Z,1.65
2022-12-27T10:24:26.376Z,1.65
2022-12-27T10:26:55.726Z,1.60
2022-12-27T10:31:51.336Z,1.55
2022-12-27T10:34:24.622Z,1.45
2022-12-27T10:37:15.369Z,1.50
2022-12-27T10:39:43.031Z,1.48
2022-12-27T10:42:15.720Z,1.45
2022-12-27T10:44:42.427Z,1.50
2022-12-27T10:47:09.211Z,1.30
2022-12-27T10:49:36.488Z,1.60
2022-12-27T10:52:19.680Z,1.50
2022-12-27T10:54:55.087Z,1.30
2022-12-27T10:57:25.525Z,1.63
2022-12-27T11:00:19.832Z,1.40
2022-12-27T11:02:54.862Z,1.40
2022-12-27T11:05:27.880Z,1.40
2022-12-27T11:07:55.687Z,1.30
2022-12-27T11:10:28.241Z,1.60
2022-12-27T11:12:56.626Z,1.20
2022-12-27T11:15:24.321Z,1.00
2022-12-27T11:17:55.118Z,1.52
2022-12-27T11:20:33.167Z,1.20
2022-12-27T11:23:03.977Z,1.30
2022-12-27T11:25:33.285Z,1.20
2022-12-27T11:28:22.773Z,1.50
2022-12-27T11:30:57.253Z,1.42
2022-12-27T11:33:45.353Z,1.05
2022-12-27T11:36:13.566Z,1.60
2022-12-27T11:38:45.078Z,1.60
2022-12-27T11:41:17.003Z,1.20
2022-12-27T11:44:19.643Z,1.58
2022-12-27T11:47:02.204Z,1.52
2022-12-27T11:49:37.014Z,1.40
2022-12-27T11:52:35.447Z,1.85
2022-12-27T11:55:23.919Z,1.50
2022-12-27T11:58:14.459Z,1.10
2022-12-27T12:01:05.249Z,1.40
2022-12-27T12:04:03.736Z,1.33
2022-12-27T12:06:48.552Z,1.73
2022-12-27T12:09:18.308Z,1.60
2022-12-27T12:12:09.557Z,1.40
2022-12-27T12:14:42.216Z,1.42
2022-12-27T12:17:50.837Z,1.40
2022-12-27T12:20:28.402Z,1.60
2022-12-27T12:22:55.122Z,1.80
2022-12-27T12:25:52.360Z,1.15
2022-12-27T12:31:57.634Z,1.38
2022-12-27T12:34:51.799Z,1.55
2022-12-27T12:37:43.012Z,1.52
2022-12-27T12:40:51.893Z,1.40
2022-12-27T12:43:43.409Z,1.25
2022-12-27T12:46:33.528Z,1.60
2022-12-27T12:49:05.997Z,1.33
2022-12-27T12:52:00.615Z,1.20
2022-12-27T12:54:51.941Z,1.08
2022-12-27T12:57:27.737Z,1.20
2022-12-27T13:00:00.174Z,1.45
2022-12-27T13:02:45.598Z,1.80
2022-12-27T13:05:51.866Z,1.50
2022-12-27T13:08:44.467Z,1.17
2022-12-27T13:11:26.421Z,1.35
2022-12-27T13:14:26.800Z,1.33
2022-12-27T13:17:06.538Z,1.40
2022-12-27T13:20:08.097Z,1.42
2022-12-27T13:22:50.311Z,1.30
2022-12-27T13:25:43.122Z,1.42
2022-12-27T13:28:31.410Z,1.33
2022-12-27T13:31:16.790Z,1.20
2022-12-27T13:33:54.790Z,1.30
2022-12-27T13:36:33.667Z,1.20
2022-12-27T13:39:44.522Z,1.35
2022-12-27T13:42:26.128Z,1.38
2022-12-27T13:45:06.942Z,1.65
2022-12-27T13:47:55.516Z,1.50
2022-12-27T13:50:40.536Z,1.60
2022-12-27T13:53:25.742Z,1.30
2022-12-27T13:59:29.896Z,1.52
2022-12-27T14:02:15.462Z,1.27
2022-12-27T14:04:52.322Z,1.50
2022-12-27T14:07:52.440Z,1.23
2022-12-27T14:10:21.814Z,1.20
2022-12-27T14:15:42.508Z,1.20
2022-12-27T14:18:22.691Z,1.33
2022-12-27T14:20:57.972Z,1.40
2022-12-27T14:23:49.131Z,1.63
2022-12-27T14:26:46.528Z,1.10
2022-12-27T14:29:38.594Z,1.45
2022-12-27T14:32:33.470Z,1.20
2022-12-27T14:35:16.134Z,1.15
2022-12-27T14:38:22.652Z,1.73
2022-12-27T14:41:17.066Z,1.13
2022-12-27T14:44:01.704Z,1.40
2022-12-27T14:46:47.127Z,1.17
2022-12-27T14:49:32.608Z,1.20
2022-12-27T14:52:43.937Z,1.50
2022-12-27T14:55:48.969Z,1.20
2022-12-27T14:58:41.167Z,1.30
2022-12-27T15:01:33.133Z,1.13
2022-12-27T15:13:14.283Z,1.10
2022-12-27T15:15:52.745Z,1.00
2022-12-27T15:18:44.483Z,1.20
2022-12-27T15:21:35.794Z,1.20
2022-12-27T15:24:11.366Z,1.10
2022-12-27T15:26:47.957Z,1.17
2022-12-27T15:29:46.691Z,1.10
2022-12-27T15:32:53.287Z,1.30
2022-12-27T15:35:32.021Z,1.10
2022-12-27T15:38:10.808Z,1.10
2022-12-27T15:40:47.893Z,1.20
2022-12-27T15:43:47.806Z,1.00
2022-12-27T15:46:50.674Z,0.90
2022-12-27T15:49:39.043Z,0.98
2022-12-27T15:52:36.370Z,1.10
2022-12-27T15:55:39.787Z,1.05
2022-12-27T15:58:22.859Z,1.10
2022-12-27T16:01:25.257Z,0.93
2022-12-27T16:03:53.845Z,1.00
2022-12-27T16:06:35.608Z,0.90
2022-12-27T16:09:20.972Z,0.90
2022-12-27T16:12:35.613Z,0.93
2022-12-27T16:15:41.033Z,1.05
2022-12-27T16:18:33.459Z,1.20
2022-12-27T16:21:03.005Z,1.00
2022-12-27T16:23:31.996Z,1.40
2022-12-27T16:26:19.702Z,1.02
2022-12-27T16:28:52.354Z,0.90
2022-12-27T16:31:32.247Z,1.00
2022-12-27T16:34:13.150Z,1.30
2022-12-27T16:36:49.923Z,1.10
2022-12-27T16:39:28.479Z,0.80
2022-12-27T16:41:55.299Z,1.00
2022-12-27T16:44:24.636Z,0.95
2022-12-27T16:49:30.602Z,1.00
2022-12-27T16:52:21.597Z,1.02
2022-12-27T16:55:25.805Z,0.90
2022-12-27T16:57:52.546Z,1.05
2022-12-27T17:00:40.399Z,0.93
2022-12-27T17:03:22.219Z,0.90
2022-12-27T17:06:30.153Z,0.90
2022-12-27T17:08:36.933Z,1.00
2022-12-27T17:11:30.472Z,0.80
2022-12-27T17:14:30.793Z,0.90
2022-12-27T17:17:12.171Z,1.25
2022-12-27T17:19:45.516Z,1.00
2022-12-27T17:22:16.085Z,0.90
2022-12-27T17:24:45.540Z,0.85
2022-12-27T17:27:12.547Z,1.20
2022-12-27T17:30:04.014Z,0.93
2022-12-27T17:32:33.433Z,1.10
2022-12-27T17:38:14.751Z,0.98
2022-12-27T17:40:54.589Z,0.93
2022-12-27T17:44:02.583Z,1.10
2022-12-27T17:49:53.059Z,0.95
2022-12-27T17:52:42.928Z,1.20
2022-12-27T17:55:47.301Z,0.88
2022-12-27T17:58:16.424Z,0.85
2022-12-27T18:00:54.921Z,1.13
2022-12-27T18:03:23.417Z,1.00
2022-12-27T18:05:50.549Z,1.03
2022-12-27T18:08:28.743Z,0.90
2022-12-27T18:11:00.949Z,1.03
2022-12-27T18:13:32.379Z,1.10
2022-12-27T18:16:00.627Z,0.90
2022-12-27T18:18:31.859Z,0.90
2022-12-27T18:21:02.329Z,1.10
2022-12-27T18:23:29.626Z,0.73
2022-12-27T18:26:04.905Z,1.00
2022-12-27T18:28:35.026Z,0.90
2022-12-27T18:31:16.635Z,1.00
2022-12-27T18:33:50.716Z,0.77
2022-12-27T18:36:47.330Z,0.90
2022-12-27T18:39:26.008Z,1.10
2022-12-27T18:41:54.210Z,0.80
2022-12-27T18:44:27.424Z,0.85
2022-12-27T18:46:57.663Z,1.02
2022-12-27T18:49:26.958Z,0.80
2022-12-27T18:54:27.773Z,0.95
2022-12-27T18:56:55.846Z,0.82
2022-12-27T18:59:31.596Z,1.00
2022-12-27T19:02:01.465Z,0.93
2022-12-27T19:04:32.702Z,0.88
2022-12-27T19:07:14.422Z,1.00
2022-12-27T19:09:53.715Z,0.77
2022-12-27T19:12:29.477Z,0.90
2022-12-27T19:14:56.590Z,0.95
2022-12-27T19:17:26.445Z,0.88
2022-12-27T19:19:56.261Z,1.00
2022-12-27T19:22:48.614Z,0.85
2022-12-27T19:25:18.439Z,1.38
2022-12-27T19:27:56.766Z,0.98
2022-12-27T19:30:45.083Z,1.00
2022-12-27T19:33:32.776Z,0.90
2022-12-27T19:36:00.587Z,0.90
2022-12-27T19:38:29.130Z,0.90
2022-12-27T19:41:03.323Z,1.20
2022-12-27T19:43:37.235Z,1.00
2022-12-27T19:46:04.003Z,1.10
2022-12-27T19:48:30.688Z,0.85
2022-12-27T19:50:58.035Z,1.05
2022-12-27T19:53:31.035Z,1.00
2022-12-27T19:55:58.412Z,1.10
2022-12-27T19:58:27.594Z,1.10
2022-12-27T20:00:55.299Z,1.10
2022-12-27T20:03:22.073Z,1.00
2022-12-27T20:06:13.259Z,1.00
2022-12-27T20:08:48.513Z,0.90
2022-12-27T20:11:19.899Z,0.80
2022-12-27T20:13:47.446Z,0.90
2022-12-27T20:16:17.646Z,1.20
2022-12-27T20:18:45.013Z,0.98
2022-12-27T20:21:13.515Z,1.05
2022-12-27T20:23:41.287Z,0.90
2022-12-27T20:26:08.619Z,0.90
2022-12-27T20:28:35.925Z,1.17
2022-12-27T20:31:12.218Z,1.17
2022-12-27T20:33:39.396Z,1.00
2022-12-27T20:36:07.685Z,1.10
2022-12-27T20:38:34.697Z,1.05
2022-12-27T20:41:09.071Z,0.98
2022-12-27T20:43:36.353Z,1.00
2022-12-27T20:46:05.266Z,1.08
2022-12-27T20:48:32.185Z,0.80
2022-12-27T20:50:58.781Z,0.90
2022-12-27T20:53:27.897Z,1.02
2022-12-27T20:55:59.084Z,1.23
2022-12-27T20:58:26.170Z,1.10
2022-12-27T21:00:53.098Z,1.00
2022-12-27T21:03:20.170Z,1.10
2022-12-27T21:05:47.074Z,1.00
2022-12-27T21:08:13.755Z,1.10
2022-12-27T21:10:40.711Z,1.23
2022-12-27T21:13:07.912Z,1.10
2022-12-27T21:15:40.414Z,1.52
2022-12-27T21:18:09.128Z,1.13
2022-12-27T21:20:35.959Z,1.33
2022-12-27T21:23:02.754Z,1.38
2022-12-27T21:25:29.737Z,1.30
2022-12-27T21:27:56.561Z,1.27
2022-12-27T21:30:23.188Z,1.15
2022-12-27T21:32:49.832Z,0.90
2022-12-27T21:35:16.512Z,1.30
2022-12-27T21:37:43.200Z,1.20
2022-12-27T21:40:13.093Z,1.10
2022-12-27T21:42:40.001Z,1.20
2022-12-27T21:45:07.248Z,1.08
2022-12-27T21:47:34.028Z,0.90
2022-12-27T21:50:00.619Z,0.90
2022-12-27T21:52:28.931Z,1.20
2022-12-27T21:54:55.701Z,1.35
2022-12-27T21:57:22.443Z,1.10
2022-12-27T21:59:49.033Z,1.13
2022-12-27T22:02:15.884Z,0.90
2022-12-27T22:04:42.746Z,1.00
2022-12-27T22:07:09.483Z,0.93
2022-12-27T22:09:36.987Z,0.93
2022-12-27T22:12:03.846Z,0.93
2022-12-27T22:14:36.582Z,1.05
2022-12-27T22:17:04.163Z,1.05
2022-12-27T22:19:30.904Z,1.10
2022-12-27T22:21:57.621Z,1.00
2022-12-27T22:24:24.384Z,1.00
2022-12-27T22:26:51.097Z,0.98
2022-12-27T22:29:17.847Z,0.90
2022-12-27T22:31:44.550Z,0.90
2022-12-27T22:34:11.271Z,1.10
2022-12-27T22:36:37.933Z,0.90
2022-12-27T22:39:04.798Z,0.98
2022-12-27T22:41:33.908Z,1.00
2022-12-27T22:44:10.485Z,1.20
2022-12-27T22:49:24.235Z,1.05
2022-12-27T22:51:50.855Z,0.93
2022-12-27T22:54:17.501Z,1.17
2022-12-27T22:56:44.554Z,0.93
2022-12-27T22:59:14.252Z,1.00
2022-12-27T23:01:43.666Z,0.73
2022-12-27T23:04:12.407Z,1.65
2022-12-27T23:06:40.121Z,1.50
2022-12-27T23:09:07.881Z,1.27
2022-12-27T23:11:37.580Z,1.17
2022-12-27T23:14:06.947Z,1.05
2022-12-27T23:19:11.896Z,1.20
2022-12-27T23:21:38.785Z,1.02
2022-12-27T23:24:06.428Z,1.00
2022-12-27T23:26:33.094Z,0.98
2022-12-27T23:28:59.999Z,1.10
2022-12-27T23:31:27.763Z,1.00
2022-12-27T23:33:57.468Z,1.00
2022-12-27T23:36:24.370Z,0.90
2022-12-27T23:38:51.285Z,0.93
2022-12-27T23:41:21.629Z,1.08
2022-12-27T23:43:52.757Z,0.85
2022-12-27T23:46:22.369Z,1.00
2022-12-27T23:48:50.093Z,1.17
2022-12-27T23:51:17.266Z,1.25
2022-12-27T23:53:44.271Z,0.98
2022-12-27T23:56:21.032Z,0.90
2022-12-27T23:58:49.789Z,1.10
